Vadito, NM

10:16 PM MST on January 28, 2015 (GMT -0700)
MesoWest GALLEGOS PEAK NM US SNOTEL | Change Station
CLOSE
Current Station
Personal Weather Station
Location: Trampas, NM
Elevation: 9799 ft
Nearby Weather Stations
Active Advisory: Winter Storm Watch

Elev 9799 ft 36.19 °N, 105.56 °W | Updated 4 days ago

Partly Cloudy
Partly Cloudy
34 °F
Feels Like 34 °F
N
3
Wind Variable Wind from East
Gusts 4 mph

Today
High -- | Low -- °F
--% Chance of Precip.
Yesterday
High -- | Low -- °F
Precip. -- in
7:06 AM 5:24 PM
Waxing Gibbous, 71% visible
Pressure 30.31 in
Visibility 10.0 miles
Clouds Clear
Dew Point 23 °F
Humidity 61%
Rainfall -999.00 in
Snow Depth Not available.
UV 0 out of 12
Pollen 4.30 out of 12
Air Quality Not available.
Flu Activity Not available.
METAR KSKX 290455Z AUTO 02004KT 10SM CLR 01/M04 A3031 RMK AO1

More Conditions Fewer Conditions

Pressure 30.31 in
Visibility 10.0 miles
Clouds Clear
Dew Point 23 °F
Humidity 61%
Rainfall -999.00 in
Snow Depth Not available.
UV 0 out of 12
Pollen 4.30 out of 12
Air Quality Not available.
Flu Activity Not available.
METAR KSKX 290455Z AUTO 02004KT 10SM CLR 01/M04 A3031 RMK AO1

More Conditions Fewer Conditions

10-Day Weather Forecast

Almanac

Astronomy

Jan. 28, 2015 Rise Set
Actual Time
Civil Twilight
Nautical Twilight
Astronomical Twilight
Moon
Length of Visible Light
Length of Day
Tomorrow will be .
, % of the Moon is Illuminated

Today's Extremes

State Highs State Lows

Community

WunderPhotos

Upload Photos

1,791,357 photos uploaded!

WunderBlogs® & News

Nearby

Air Quality

  Air Quality AQ Index Pollutant
Not available.

Snow Depth

Station Depth Elevation

Earthquake Activity

City Distance Mag. Time & Date
Minimum magnitude displayed is 2.5.

Coastal Water Temperatures

Place Temperature

Nearby Weather Stations